sensor_id;sensor_type;location;lat;lon;timestamp;P1;durP1;ratioP1;P2;durP2;ratioP2
74291;SDS011;62687;55.738;37.516;2022-09-11T00:02:32;27.27;;;9.07;;
74291;SDS011;62687;55.738;37.516;2022-09-11T00:05:16;30.05;;;9.15;;
74291;SDS011;62687;55.738;37.516;2022-09-11T00:08:00;28.02;;;9.35;;
74291;SDS011;62687;55.738;37.516;2022-09-11T00:10:45;31.02;;;10.20;;
74291;SDS011;62687;55.738;37.516;2022-09-11T00:13:31;37.75;;;9.68;;
74291;SDS011;62687;55.738;37.516;2022-09-11T00:16:18;32.40;;;10.35;;
74291;SDS011;62687;55.738;37.516;2022-09-11T00:19:06;31.77;;;9.85;;
74291;SDS011;62687;55.738;37.516;2022-09-11T00:21:53;35.38;;;10.40;;
74291;SDS011;62687;55.738;37.516;2022-09-11T00:24:40;24.77;;;9.57;;
74291;SDS011;62687;55.738;37.516;2022-09-11T00:27:24;28.35;;;10.45;;
74291;SDS011;62687;55.738;37.516;2022-09-11T00:30:09;24.73;;;10.45;;
74291;SDS011;62687;55.738;37.516;2022-09-11T00:32:54;23.20;;;9.63;;
74291;SDS011;62687;55.738;37.516;2022-09-11T00:35:38;30.35;;;10.05;;
74291;SDS011;62687;55.738;37.516;2022-09-11T00:38:24;27.35;;;9.40;;
74291;SDS011;62687;55.738;37.516;2022-09-11T00:41:14;30.60;;;11.32;;
74291;SDS011;62687;55.738;37.516;2022-09-11T00:46:49;25.23;;;9.25;;
74291;SDS011;62687;55.738;37.516;2022-09-11T00:52:29;27.70;;;9.80;;
74291;SDS011;62687;55.738;37.516;2022-09-11T00:55:17;29.83;;;9.30;;
74291;SDS011;62687;55.738;37.516;2022-09-11T00:58:04;27.35;;;9.75;;
74291;SDS011;62687;55.738;37.516;2022-09-11T01:00:53;30.95;;;11.15;;
74291;SDS011;62687;55.738;37.516;2022-09-11T01:03:39;35.33;;;9.82;;
74291;SDS011;62687;55.738;37.516;2022-09-11T01:06:24;35.00;;;9.57;;
74291;SDS011;62687;55.738;37.516;2022-09-11T01:09:09;37.80;;;10.13;;
74291;SDS011;62687;55.738;37.516;2022-09-11T01:15:05;25.08;;;9.07;;
74291;SDS011;62687;55.738;37.516;2022-09-11T01:27:47;27.48;;;9.55;;
74291;SDS011;62687;55.738;37.516;2022-09-11T01:30:37;26.45;;;9.80;;
74291;SDS011;62687;55.738;37.516;2022-09-11T01:33:27;24.90;;;10.15;;
74291;SDS011;62687;55.738;37.516;2022-09-11T01:36:21;25.00;;;10.10;;
74291;SDS011;62687;55.738;37.516;2022-09-11T01:39:19;26.10;;;10.38;;
74291;SDS011;62687;55.738;37.516;2022-09-11T01:42:09;34.15;;;10.50;;
74291;SDS011;62687;55.738;37.516;2022-09-11T01:44:59;33.20;;;10.90;;
74291;SDS011;62687;55.738;37.516;2022-09-11T01:47:46;33.55;;;10.60;;
74291;SDS011;62687;55.738;37.516;2022-09-11T01:50:32;28.75;;;10.23;;
74291;SDS011;62687;55.738;37.516;2022-09-11T01:53:20;29.10;;;10.40;;
74291;SDS011;62687;55.738;37.516;2022-09-11T01:56:09;32.75;;;10.25;;
74291;SDS011;62687;55.738;37.516;2022-09-11T01:58:59;38.75;;;11.05;;
74291;SDS011;62687;55.738;37.516;2022-09-11T02:01:49;42.85;;;10.85;;
74291;SDS011;62687;55.738;37.516;2022-09-11T02:04:39;27.08;;;10.55;;
74291;SDS011;62687;55.738;37.516;2022-09-11T02:07:42;30.33;;;9.77;;
74291;SDS011;62687;55.738;37.516;2022-09-11T02:10:33;35.03;;;10.50;;
74291;SDS011;62687;55.738;37.516;2022-09-11T02:19:24;25.02;;;9.95;;
74291;SDS011;62687;55.738;37.516;2022-09-11T02:22:11;33.45;;;10.52;;
74291;SDS011;62687;55.738;37.516;2022-09-11T02:24:55;25.98;;;10.02;;
74291;SDS011;62687;55.738;37.516;2022-09-11T02:27:39;27.38;;;9.95;;
74291;SDS011;62687;55.738;37.516;2022-09-11T02:30:23;28.88;;;10.75;;
74291;SDS011;62687;55.738;37.516;2022-09-11T02:54:27;27.25;;;9.93;;
74291;SDS011;62687;55.738;37.516;2022-09-11T02:57:34;32.40;;;11.05;;
74291;SDS011;62687;55.738;37.516;2022-09-11T03:00:22;29.85;;;9.98;;
74291;SDS011;62687;55.738;37.516;2022-09-11T03:03:06;28.73;;;9.75;;
74291;SDS011;62687;55.738;37.516;2022-09-11T03:05:50;35.10;;;10.05;;
74291;SDS011;62687;55.738;37.516;2022-09-11T03:08:34;32.70;;;9.95;;
74291;SDS011;62687;55.738;37.516;2022-09-11T03:11:18;26.85;;;10.95;;
74291;SDS011;62687;55.738;37.516;2022-09-11T03:14:03;43.95;;;11.30;;
74291;SDS011;62687;55.738;37.516;2022-09-11T03:16:47;30.77;;;9.52;;
74291;SDS011;62687;55.738;37.516;2022-09-11T03:22:16;27.20;;;9.60;;
74291;SDS011;62687;55.738;37.516;2022-09-11T03:25:00;29.95;;;10.88;;
74291;SDS011;62687;55.738;37.516;2022-09-11T03:27:45;25.98;;;9.93;;
74291;SDS011;62687;55.738;37.516;2022-09-11T03:30:29;22.92;;;9.65;;
74291;SDS011;62687;55.738;37.516;2022-09-11T03:33:13;22.88;;;9.60;;
74291;SDS011;62687;55.738;37.516;2022-09-11T03:35:58;28.42;;;9.93;;
74291;SDS011;62687;55.738;37.516;2022-09-11T03:38:42;27.85;;;9.73;;
74291;SDS011;62687;55.738;37.516;2022-09-11T03:41:28;27.85;;;9.88;;
74291;SDS011;62687;55.738;37.516;2022-09-11T03:44:12;23.33;;;9.32;;
74291;SDS011;62687;55.738;37.516;2022-09-11T03:46:56;29.33;;;9.65;;
74291;SDS011;62687;55.738;37.516;2022-09-11T03:49:40;23.77;;;9.57;;
74291;SDS011;62687;55.738;37.516;2022-09-11T03:52:24;22.98;;;10.68;;
74291;SDS011;62687;55.738;37.516;2022-09-11T03:55:09;30.75;;;10.52;;
74291;SDS011;62687;55.738;37.516;2022-09-11T03:57:53;22.52;;;9.13;;
74291;SDS011;62687;55.738;37.516;2022-09-11T04:00:41;30.02;;;10.48;;
74291;SDS011;62687;55.738;37.516;2022-09-11T04:03:29;26.05;;;9.27;;
74291;SDS011;62687;55.738;37.516;2022-09-11T04:06:13;22.00;;;9.43;;
74291;SDS011;62687;55.738;37.516;2022-09-11T04:08:58;23.23;;;9.38;;
74291;SDS011;62687;55.738;37.516;2022-09-11T04:11:42;31.75;;;9.88;;
74291;SDS011;62687;55.738;37.516;2022-09-11T04:14:26;26.80;;;11.23;;
74291;SDS011;62687;55.738;37.516;2022-09-11T04:17:11;23.55;;;9.82;;
74291;SDS011;62687;55.738;37.516;2022-09-11T04:19:55;22.17;;;10.55;;
74291;SDS011;62687;55.738;37.516;2022-09-11T04:22:40;21.70;;;10.05;;
74291;SDS011;62687;55.738;37.516;2022-09-11T04:25:24;21.95;;;9.93;;
74291;SDS011;62687;55.738;37.516;2022-09-11T04:28:09;28.75;;;9.38;;
74291;SDS011;62687;55.738;37.516;2022-09-11T04:30:53;29.30;;;11.18;;
74291;SDS011;62687;55.738;37.516;2022-09-11T04:33:38;38.45;;;10.00;;
74291;SDS011;62687;55.738;37.516;2022-09-11T04:36:22;21.55;;;8.70;;
74291;SDS011;62687;55.738;37.516;2022-09-11T04:39:08;33.08;;;9.57;;
74291;SDS011;62687;55.738;37.516;2022-09-11T04:41:53;26.85;;;8.85;;
74291;SDS011;62687;55.738;37.516;2022-09-11T04:44:38;23.95;;;11.80;;
74291;SDS011;62687;55.738;37.516;2022-09-11T04:47:22;27.92;;;9.93;;
74291;SDS011;62687;55.738;37.516;2022-09-11T04:50:06;30.17;;;9.43;;
74291;SDS011;62687;55.738;37.516;2022-09-11T04:52:51;27.00;;;10.43;;
74291;SDS011;62687;55.738;37.516;2022-09-11T04:55:35;26.67;;;9.13;;
74291;SDS011;62687;55.738;37.516;2022-09-11T04:58:19;27.42;;;9.18;;
74291;SDS011;62687;55.738;37.516;2022-09-11T05:01:05;31.02;;;9.10;;
74291;SDS011;62687;55.738;37.516;2022-09-11T05:03:51;30.13;;;9.77;;
74291;SDS011;62687;55.738;37.516;2022-09-11T05:06:35;28.98;;;9.88;;
74291;SDS011;62687;55.738;37.516;2022-09-11T05:09:20;31.13;;;9.77;;
74291;SDS011;62687;55.738;37.516;2022-09-11T05:12:04;30.70;;;9.23;;
74291;SDS011;62687;55.738;37.516;2022-09-11T05:14:49;28.38;;;9.30;;
74291;SDS011;62687;55.738;37.516;2022-09-11T05:17:33;26.23;;;9.10;;
74291;SDS011;62687;55.738;37.516;2022-09-11T05:20:17;22.50;;;8.02;;
74291;SDS011;62687;55.738;37.516;2022-09-11T05:23:02;24.83;;;8.48;;
74291;SDS011;62687;55.738;37.516;2022-09-11T05:25:46;24.65;;;8.30;;
74291;SDS011;62687;55.738;37.516;2022-09-11T05:28:30;32.13;;;9.55;;
74291;SDS011;62687;55.738;37.516;2022-09-11T05:31:16;28.75;;;9.93;;
74291;SDS011;62687;55.738;37.516;2022-09-11T05:34:01;33.55;;;9.65;;
74291;SDS011;62687;55.738;37.516;2022-09-11T05:36:45;26.83;;;9.38;;
74291;SDS011;62687;55.738;37.516;2022-09-11T05:39:30;32.85;;;9.65;;
74291;SDS011;62687;55.738;37.516;2022-09-11T05:42:14;31.13;;;9.00;;
74291;SDS011;62687;55.738;37.516;2022-09-11T05:44:58;28.23;;;8.40;;
74291;SDS011;62687;55.738;37.516;2022-09-11T05:47:42;22.15;;;8.25;;
74291;SDS011;62687;55.738;37.516;2022-09-11T05:50:26;26.02;;;8.45;;
74291;SDS011;62687;55.738;37.516;2022-09-11T05:53:10;22.02;;;7.38;;
74291;SDS011;62687;55.738;37.516;2022-09-11T05:55:54;26.20;;;7.05;;
74291;SDS011;62687;55.738;37.516;2022-09-11T05:58:39;18.85;;;6.95;;
74291;SDS011;62687;55.738;37.516;2022-09-11T06:01:24;20.13;;;6.65;;
74291;SDS011;62687;55.738;37.516;2022-09-11T06:04:10;13.95;;;6.45;;
74291;SDS011;62687;55.738;37.516;2022-09-11T06:06:55;23.23;;;7.38;;
74291;SDS011;62687;55.738;37.516;2022-09-11T06:09:39;26.15;;;6.13;;
74291;SDS011;62687;55.738;37.516;2022-09-11T06:12:23;18.30;;;6.30;;
74291;SDS011;62687;55.738;37.516;2022-09-11T06:15:09;9.82;;;4.90;;
74291;SDS011;62687;55.738;37.516;2022-09-11T06:17:54;12.77;;;4.03;;
74291;SDS011;62687;55.738;37.516;2022-09-11T06:20:39;9.75;;;3.00;;
74291;SDS011;62687;55.738;37.516;2022-09-11T06:23:24;8.00;;;3.45;;
74291;SDS011;62687;55.738;37.516;2022-09-11T06:26:09;14.38;;;2.45;;
74291;SDS011;62687;55.738;37.516;2022-09-11T06:28:54;9.57;;;2.53;;
74291;SDS011;62687;55.738;37.516;2022-09-11T06:31:39;6.65;;;2.20;;
74291;SDS011;62687;55.738;37.516;2022-09-11T06:34:24;12.88;;;2.40;;
74291;SDS011;62687;55.738;37.516;2022-09-11T06:37:09;6.22;;;2.90;;
74291;SDS011;62687;55.738;37.516;2022-09-11T06:39:53;7.57;;;2.60;;
74291;SDS011;62687;55.738;37.516;2022-09-11T06:42:37;7.60;;;2.67;;
74291;SDS011;62687;55.738;37.516;2022-09-11T06:45:22;17.63;;;2.65;;
74291;SDS011;62687;55.738;37.516;2022-09-11T06:48:06;7.50;;;2.88;;
74291;SDS011;62687;55.738;37.516;2022-09-11T06:50:50;6.15;;;1.83;;
74291;SDS011;62687;55.738;37.516;2022-09-11T06:53:35;6.85;;;2.25;;
74291;SDS011;62687;55.738;37.516;2022-09-11T06:56:19;11.38;;;2.28;;
74291;SDS011;62687;55.738;37.516;2022-09-11T06:59:03;8.60;;;2.28;;
74291;SDS011;62687;55.738;37.516;2022-09-11T07:01:48;7.57;;;2.00;;
74291;SDS011;62687;55.738;37.516;2022-09-11T07:04:32;3.97;;;2.00;;
74291;SDS011;62687;55.738;37.516;2022-09-11T07:07:16;8.35;;;2.50;;
74291;SDS011;62687;55.738;37.516;2022-09-11T07:10:00;5.38;;;2.30;;
74291;SDS011;62687;55.738;37.516;2022-09-11T07:12:46;6.43;;;2.47;;
74291;SDS011;62687;55.738;37.516;2022-09-11T07:15:30;4.57;;;2.58;;
74291;SDS011;62687;55.738;37.516;2022-09-11T07:18:14;4.10;;;2.20;;
74291;SDS011;62687;55.738;37.516;2022-09-11T07:20:58;3.35;;;1.88;;
74291;SDS011;62687;55.738;37.516;2022-09-11T07:23:45;6.18;;;2.67;;
74291;SDS011;62687;55.738;37.516;2022-09-11T07:26:32;9.27;;;2.80;;
74291;SDS011;62687;55.738;37.516;2022-09-11T07:29:16;6.90;;;3.50;;
74291;SDS011;62687;55.738;37.516;2022-09-11T07:32:01;10.23;;;2.83;;
74291;SDS011;62687;55.738;37.516;2022-09-11T07:34:45;8.98;;;2.75;;
74291;SDS011;62687;55.738;37.516;2022-09-11T07:37:30;6.95;;;2.83;;
74291;SDS011;62687;55.738;37.516;2022-09-11T07:40:14;8.10;;;2.75;;
74291;SDS011;62687;55.738;37.516;2022-09-11T07:42:59;5.75;;;2.28;;
74291;SDS011;62687;55.738;37.516;2022-09-11T07:45:43;7.95;;;2.10;;
74291;SDS011;62687;55.738;37.516;2022-09-11T07:48:28;6.68;;;2.35;;
74291;SDS011;62687;55.738;37.516;2022-09-11T07:51:14;6.75;;;2.00;;
74291;SDS011;62687;55.738;37.516;2022-09-11T07:53:58;3.38;;;2.25;;
74291;SDS011;62687;55.738;37.516;2022-09-11T07:59:27;7.20;;;2.33;;
74291;SDS011;62687;55.738;37.516;2022-09-11T08:02:11;6.68;;;2.17;;
74291;SDS011;62687;55.738;37.516;2022-09-11T08:04:55;8.15;;;2.40;;
74291;SDS011;62687;55.738;37.516;2022-09-11T08:07:40;8.02;;;1.90;;
74291;SDS011;62687;55.738;37.516;2022-09-11T08:10:23;6.95;;;2.40;;
74291;SDS011;62687;55.738;37.516;2022-09-11T08:13:08;7.50;;;2.78;;
74291;SDS011;62687;55.738;37.516;2022-09-11T08:15:52;8.95;;;2.92;;
74291;SDS011;62687;55.738;37.516;2022-09-11T08:18:36;7.78;;;2.15;;
74291;SDS011;62687;55.738;37.516;2022-09-11T08:21:20;7.68;;;2.38;;
74291;SDS011;62687;55.738;37.516;2022-09-11T08:24:06;10.77;;;2.58;;
74291;SDS011;62687;55.738;37.516;2022-09-11T08:26:50;8.95;;;3.50;;
74291;SDS011;62687;55.738;37.516;2022-09-11T08:29:35;12.82;;;2.72;;
74291;SDS011;62687;55.738;37.516;2022-09-11T08:32:19;9.52;;;3.17;;
74291;SDS011;62687;55.738;37.516;2022-09-11T08:35:03;9.60;;;3.33;;
74291;SDS011;62687;55.738;37.516;2022-09-11T08:37:47;8.82;;;3.03;;
74291;SDS011;62687;55.738;37.516;2022-09-11T08:40:31;9.43;;;2.90;;
74291;SDS011;62687;55.738;37.516;2022-09-11T08:43:25;9.20;;;3.47;;
74291;SDS011;62687;55.738;37.516;2022-09-11T08:46:15;8.68;;;3.50;;
74291;SDS011;62687;55.738;37.516;2022-09-11T08:52:07;7.10;;;2.70;;
74291;SDS011;62687;55.738;37.516;2022-09-11T08:54:56;7.43;;;2.30;;
74291;SDS011;62687;55.738;37.516;2022-09-11T09:00:30;10.63;;;2.83;;
74291;SDS011;62687;55.738;37.516;2022-09-11T09:18:57;6.53;;;2.25;;
74291;SDS011;62687;55.738;37.516;2022-09-11T09:24:57;5.55;;;2.30;;
74291;SDS011;62687;55.738;37.516;2022-09-11T09:27:45;7.50;;;2.33;;
74291;SDS011;62687;55.738;37.516;2022-09-11T09:30:34;6.45;;;2.00;;
74291;SDS011;62687;55.738;37.516;2022-09-11T09:36:37;5.82;;;2.22;;
74291;SDS011;62687;55.738;37.516;2022-09-11T09:39:28;9.13;;;1.95;;
74291;SDS011;62687;55.738;37.516;2022-09-11T09:45:18;4.78;;;1.92;;
74291;SDS011;62687;55.738;37.516;2022-09-11T09:48:17;4.93;;;2.10;;
74291;SDS011;62687;55.738;37.516;2022-09-11T09:51:01;7.85;;;2.10;;
74291;SDS011;62687;55.738;37.516;2022-09-11T09:53:51;3.95;;;1.70;;
74291;SDS011;62687;55.738;37.516;2022-09-11T09:56:40;9.60;;;1.90;;
74291;SDS011;62687;55.738;37.516;2022-09-11T09:59:33;3.83;;;1.70;;
74291;SDS011;62687;55.738;37.516;2022-09-11T10:05:29;3.95;;;1.33;;
74291;SDS011;62687;55.738;37.516;2022-09-11T10:08:33;5.20;;;1.52;;
74291;SDS011;62687;55.738;37.516;2022-09-11T10:11:19;5.55;;;1.55;;
74291;SDS011;62687;55.738;37.516;2022-09-11T10:14:13;3.75;;;1.50;;
74291;SDS011;62687;55.738;37.516;2022-09-11T10:17:04;4.13;;;1.60;;
74291;SDS011;62687;55.738;37.516;2022-09-11T10:19:48;3.70;;;1.40;;
74291;SDS011;62687;55.738;37.516;2022-09-11T10:22:34;7.78;;;1.45;;
74291;SDS011;62687;55.738;37.516;2022-09-11T10:25:25;3.97;;;1.50;;
74291;SDS011;62687;55.738;37.516;2022-09-11T10:28:12;4.90;;;1.70;;
74291;SDS011;62687;55.738;37.516;2022-09-11T10:31:01;3.83;;;1.73;;
74291;SDS011;62687;55.738;37.516;2022-09-11T10:33:51;7.82;;;1.27;;
74291;SDS011;62687;55.738;37.516;2022-09-11T10:36:39;5.72;;;1.80;;
74291;SDS011;62687;55.738;37.516;2022-09-11T10:39:24;9.48;;;1.52;;
74291;SDS011;62687;55.738;37.516;2022-09-11T10:42:20;5.25;;;2.13;;
74291;SDS011;62687;55.738;37.516;2022-09-11T10:45:12;5.30;;;1.70;;
74291;SDS011;62687;55.738;37.516;2022-09-11T10:48:12;5.72;;;1.67;;
74291;SDS011;62687;55.738;37.516;2022-09-11T10:51:05;8.38;;;1.65;;
74291;SDS011;62687;55.738;37.516;2022-09-11T10:57:01;6.45;;;1.83;;
74291;SDS011;62687;55.738;37.516;2022-09-11T11:11:34;3.38;;;1.50;;
74291;SDS011;62687;55.738;37.516;2022-09-11T11:23:34;3.45;;;1.42;;
74291;SDS011;62687;55.738;37.516;2022-09-11T11:26:30;3.97;;;1.52;;
74291;SDS011;62687;55.738;37.516;2022-09-11T11:38:13;5.07;;;2.00;;
74291;SDS011;62687;55.738;37.516;2022-09-11T11:41:23;4.47;;;1.77;;
74291;SDS011;62687;55.738;37.516;2022-09-11T11:44:24;7.07;;;1.70;;
74291;SDS011;62687;55.738;37.516;2022-09-11T11:47:16;5.15;;;1.80;;
74291;SDS011;62687;55.738;37.516;2022-09-11T11:53:18;6.68;;;2.40;;
74291;SDS011;62687;55.738;37.516;2022-09-11T11:56:22;8.10;;;2.40;;
74291;SDS011;62687;55.738;37.516;2022-09-11T12:02:34;5.43;;;2.33;;
74291;SDS011;62687;55.738;37.516;2022-09-11T12:05:29;5.25;;;2.28;;
74291;SDS011;62687;55.738;37.516;2022-09-11T12:08:15;7.65;;;2.28;;
74291;SDS011;62687;55.738;37.516;2022-09-11T12:11:01;9.43;;;2.67;;
74291;SDS011;62687;55.738;37.516;2022-09-11T12:13:50;8.40;;;2.40;;
74291;SDS011;62687;55.738;37.516;2022-09-11T12:16:37;5.03;;;1.95;;
74291;SDS011;62687;55.738;37.516;2022-09-11T12:19:22;6.18;;;1.88;;
74291;SDS011;62687;55.738;37.516;2022-09-11T12:22:10;5.78;;;1.90;;
74291;SDS011;62687;55.738;37.516;2022-09-11T12:24:55;5.43;;;1.30;;
74291;SDS011;62687;55.738;37.516;2022-09-11T12:30:26;4.88;;;1.20;;
74291;SDS011;62687;55.738;37.516;2022-09-11T12:33:46;3.22;;;1.10;;
74291;SDS011;62687;55.738;37.516;2022-09-11T12:36:26;4.60;;;1.40;;
74291;SDS011;62687;55.738;37.516;2022-09-11T12:45:30;3.90;;;1.20;;
74291;SDS011;62687;55.738;37.516;2022-09-11T12:48:53;5.65;;;1.13;;
74291;SDS011;62687;55.738;37.516;2022-09-11T12:51:53;4.60;;;1.20;;
74291;SDS011;62687;55.738;37.516;2022-09-11T12:54:41;5.28;;;1.23;;
74291;SDS011;62687;55.738;37.516;2022-09-11T12:57:27;4.90;;;1.13;;
74291;SDS011;62687;55.738;37.516;2022-09-11T13:00:59;3.45;;;1.10;;
74291;SDS011;62687;55.738;37.516;2022-09-11T13:03:30;4.45;;;1.20;;
74291;SDS011;62687;55.738;37.516;2022-09-11T13:06:15;5.93;;;1.10;;
74291;SDS011;62687;55.738;37.516;2022-09-11T13:08:59;3.20;;;1.38;;
74291;SDS011;62687;55.738;37.516;2022-09-11T13:11:46;4.65;;;1.38;;
74291;SDS011;62687;55.738;37.516;2022-09-11T13:17:23;7.00;;;1.40;;
74291;SDS011;62687;55.738;37.516;2022-09-11T13:20:18;3.67;;;1.45;;
74291;SDS011;62687;55.738;37.516;2022-09-11T13:23:16;3.42;;;1.25;;
74291;SDS011;62687;55.738;37.516;2022-09-11T13:26:03;5.47;;;1.58;;
74291;SDS011;62687;55.738;37.516;2022-09-11T13:28:51;3.55;;;1.30;;
74291;SDS011;62687;55.738;37.516;2022-09-11T13:31:37;2.65;;;1.10;;
74291;SDS011;62687;55.738;37.516;2022-09-11T13:34:22;3.50;;;1.52;;
74291;SDS011;62687;55.738;37.516;2022-09-11T13:37:11;4.50;;;1.60;;
74291;SDS011;62687;55.738;37.516;2022-09-11T13:40:03;5.28;;;1.15;;
74291;SDS011;62687;55.738;37.516;2022-09-11T13:42:50;3.25;;;1.48;;
74291;SDS011;62687;55.738;37.516;2022-09-11T13:45:35;5.80;;;1.27;;
74291;SDS011;62687;55.738;37.516;2022-09-11T13:48:20;3.95;;;1.17;;
74291;SDS011;62687;55.738;37.516;2022-09-11T13:51:05;4.55;;;1.10;;
74291;SDS011;62687;55.738;37.516;2022-09-11T13:54:00;5.18;;;1.63;;
74291;SDS011;62687;55.738;37.516;2022-09-11T14:05:21;6.20;;;1.40;;
74291;SDS011;62687;55.738;37.516;2022-09-11T14:08:25;10.82;;;1.70;;
74291;SDS011;62687;55.738;37.516;2022-09-11T14:14:31;5.55;;;1.50;;
74291;SDS011;62687;55.738;37.516;2022-09-11T14:17:17;7.60;;;1.15;;
74291;SDS011;62687;55.738;37.516;2022-09-11T14:20:03;4.07;;;1.20;;
74291;SDS011;62687;55.738;37.516;2022-09-11T14:22:51;5.97;;;1.13;;
74291;SDS011;62687;55.738;37.516;2022-09-11T14:25:38;4.88;;;1.13;;
74291;SDS011;62687;55.738;37.516;2022-09-11T14:31:32;5.28;;;1.40;;
74291;SDS011;62687;55.738;37.516;2022-09-11T14:34:24;2.97;;;1.40;;
74291;SDS011;62687;55.738;37.516;2022-09-11T14:37:11;4.80;;;1.50;;
74291;SDS011;62687;55.738;37.516;2022-09-11T14:40:00;3.20;;;1.60;;
74291;SDS011;62687;55.738;37.516;2022-09-11T14:42:49;7.70;;;1.27;;
74291;SDS011;62687;55.738;37.516;2022-09-11T14:45:33;5.38;;;1.30;;
74291;SDS011;62687;55.738;37.516;2022-09-11T14:48:17;3.92;;;1.42;;
74291;SDS011;62687;55.738;37.516;2022-09-11T14:51:01;4.63;;;1.75;;
74291;SDS011;62687;55.738;37.516;2022-09-11T14:53:50;7.88;;;1.48;;
74291;SDS011;62687;55.738;37.516;2022-09-11T14:56:34;3.78;;;1.10;;
74291;SDS011;62687;55.738;37.516;2022-09-11T14:59:20;6.47;;;1.38;;
74291;SDS011;62687;55.738;37.516;2022-09-11T15:02:09;3.95;;;1.55;;
74291;SDS011;62687;55.738;37.516;2022-09-11T15:04:55;3.50;;;1.48;;
74291;SDS011;62687;55.738;37.516;2022-09-11T15:07:41;5.60;;;1.75;;
74291;SDS011;62687;55.738;37.516;2022-09-11T15:10:28;2.92;;;1.33;;
74291;SDS011;62687;55.738;37.516;2022-09-11T15:13:12;6.00;;;1.40;;
74291;SDS011;62687;55.738;37.516;2022-09-11T15:15:57;2.92;;;1.20;;
74291;SDS011;62687;55.738;37.516;2022-09-11T15:18:41;3.50;;;1.50;;
74291;SDS011;62687;55.738;37.516;2022-09-11T15:21:27;4.32;;;1.63;;
74291;SDS011;62687;55.738;37.516;2022-09-11T15:24:11;3.58;;;1.65;;
74291;SDS011;62687;55.738;37.516;2022-09-11T15:26:59;4.22;;;1.70;;
74291;SDS011;62687;55.738;37.516;2022-09-11T15:29:44;6.50;;;1.70;;
74291;SDS011;62687;55.738;37.516;2022-09-11T15:32:29;4.25;;;1.65;;
74291;SDS011;62687;55.738;37.516;2022-09-11T15:35:14;5.38;;;1.73;;
74291;SDS011;62687;55.738;37.516;2022-09-11T15:38:01;7.07;;;1.55;;
74291;SDS011;62687;55.738;37.516;2022-09-11T15:40:54;5.07;;;1.80;;
74291;SDS011;62687;55.738;37.516;2022-09-11T15:43:41;7.93;;;1.80;;
74291;SDS011;62687;55.738;37.516;2022-09-11T15:46:27;5.72;;;1.80;;
74291;SDS011;62687;55.738;37.516;2022-09-11T15:49:13;5.95;;;2.00;;
74291;SDS011;62687;55.738;37.516;2022-09-11T15:51:57;11.48;;;2.45;;
74291;SDS011;62687;55.738;37.516;2022-09-11T15:54:42;6.00;;;1.90;;
74291;SDS011;62687;55.738;37.516;2022-09-11T15:57:28;5.70;;;1.80;;
74291;SDS011;62687;55.738;37.516;2022-09-11T16:00:16;7.35;;;2.30;;
74291;SDS011;62687;55.738;37.516;2022-09-11T16:03:00;6.22;;;1.95;;
74291;SDS011;62687;55.738;37.516;2022-09-11T16:05:45;7.55;;;1.67;;
74291;SDS011;62687;55.738;37.516;2022-09-11T16:08:29;8.88;;;2.10;;
74291;SDS011;62687;55.738;37.516;2022-09-11T16:11:13;9.95;;;1.90;;
74291;SDS011;62687;55.738;37.516;2022-09-11T16:14:00;4.93;;;2.00;;
74291;SDS011;62687;55.738;37.516;2022-09-11T16:16:46;9.07;;;2.10;;
74291;SDS011;62687;55.738;37.516;2022-09-11T16:19:30;6.72;;;2.20;;
74291;SDS011;62687;55.738;37.516;2022-09-11T16:22:15;10.60;;;4.60;;
74291;SDS011;62687;55.738;37.516;2022-09-11T16:24:59;8.23;;;2.40;;
74291;SDS011;62687;55.738;37.516;2022-09-11T16:27:45;6.85;;;2.15;;
74291;SDS011;62687;55.738;37.516;2022-09-11T16:30:29;7.80;;;2.28;;
74291;SDS011;62687;55.738;37.516;2022-09-11T16:33:13;5.45;;;2.20;;
74291;SDS011;62687;55.738;37.516;2022-09-11T16:36:02;10.50;;;2.70;;
74291;SDS011;62687;55.738;37.516;2022-09-11T16:38:49;4.93;;;2.20;;
74291;SDS011;62687;55.738;37.516;2022-09-11T16:41:34;7.63;;;2.90;;
74291;SDS011;62687;55.738;37.516;2022-09-11T16:44:20;6.63;;;2.20;;
74291;SDS011;62687;55.738;37.516;2022-09-11T16:47:05;6.68;;;2.50;;
74291;SDS011;62687;55.738;37.516;2022-09-11T16:49:49;9.38;;;2.30;;
74291;SDS011;62687;55.738;37.516;2022-09-11T16:52:33;8.30;;;2.60;;
74291;SDS011;62687;55.738;37.516;2022-09-11T16:55:18;7.22;;;2.38;;
74291;SDS011;62687;55.738;37.516;2022-09-11T16:58:02;6.60;;;2.75;;
74291;SDS011;62687;55.738;37.516;2022-09-11T17:00:47;9.65;;;2.78;;
74291;SDS011;62687;55.738;37.516;2022-09-11T17:03:31;9.80;;;3.08;;
74291;SDS011;62687;55.738;37.516;2022-09-11T17:06:16;9.40;;;2.63;;
74291;SDS011;62687;55.738;37.516;2022-09-11T17:09:03;7.60;;;2.70;;
74291;SDS011;62687;55.738;37.516;2022-09-11T17:11:47;9.10;;;3.92;;
74291;SDS011;62687;55.738;37.516;2022-09-11T17:14:31;13.07;;;4.90;;
74291;SDS011;62687;55.738;37.516;2022-09-11T17:17:15;12.13;;;5.57;;
74291;SDS011;62687;55.738;37.516;2022-09-11T17:20:00;11.05;;;4.80;;
74291;SDS011;62687;55.738;37.516;2022-09-11T17:22:44;14.07;;;5.10;;
74291;SDS011;62687;55.738;37.516;2022-09-11T17:25:29;8.65;;;4.78;;
74291;SDS011;62687;55.738;37.516;2022-09-11T17:28:14;10.70;;;3.58;;
74291;SDS011;62687;55.738;37.516;2022-09-11T17:31:02;8.05;;;4.07;;
74291;SDS011;62687;55.738;37.516;2022-09-11T17:33:50;6.18;;;3.45;;
74291;SDS011;62687;55.738;37.516;2022-09-11T17:36:34;7.13;;;3.70;;
74291;SDS011;62687;55.738;37.516;2022-09-11T17:39:19;8.45;;;3.78;;
74291;SDS011;62687;55.738;37.516;2022-09-11T17:42:03;8.02;;;3.03;;
74291;SDS011;62687;55.738;37.516;2022-09-11T17:44:49;10.48;;;3.63;;
74291;SDS011;62687;55.738;37.516;2022-09-11T17:47:33;8.48;;;3.75;;
74291;SDS011;62687;55.738;37.516;2022-09-11T17:50:18;14.55;;;4.05;;
74291;SDS011;62687;55.738;37.516;2022-09-11T17:53:02;8.05;;;3.03;;
74291;SDS011;62687;55.738;37.516;2022-09-11T17:55:46;7.47;;;3.75;;
74291;SDS011;62687;55.738;37.516;2022-09-11T17:58:32;7.85;;;2.78;;
74291;SDS011;62687;55.738;37.516;2022-09-11T18:01:17;7.97;;;2.90;;
74291;SDS011;62687;55.738;37.516;2022-09-11T18:04:02;8.20;;;2.85;;
74291;SDS011;62687;55.738;37.516;2022-09-11T18:06:46;6.35;;;2.15;;
74291;SDS011;62687;55.738;37.516;2022-09-11T18:09:31;8.30;;;2.60;;
74291;SDS011;62687;55.738;37.516;2022-09-11T18:12:15;8.73;;;2.40;;
74291;SDS011;62687;55.738;37.516;2022-09-11T18:15:00;6.85;;;2.72;;
74291;SDS011;62687;55.738;37.516;2022-09-11T18:17:44;6.55;;;2.60;;
74291;SDS011;62687;55.738;37.516;2022-09-11T18:23:13;5.30;;;2.65;;
74291;SDS011;62687;55.738;37.516;2022-09-11T18:25:59;6.22;;;2.40;;
74291;SDS011;62687;55.738;37.516;2022-09-11T18:28:43;7.85;;;2.40;;
74291;SDS011;62687;55.738;37.516;2022-09-11T18:31:29;10.07;;;2.90;;
74291;SDS011;62687;55.738;37.516;2022-09-11T18:34:16;6.63;;;2.53;;
74291;SDS011;62687;55.738;37.516;2022-09-11T18:37:02;6.10;;;2.25;;
74291;SDS011;62687;55.738;37.516;2022-09-11T18:39:46;4.57;;;2.22;;
74291;SDS011;62687;55.738;37.516;2022-09-11T18:42:31;5.53;;;2.40;;
74291;SDS011;62687;55.738;37.516;2022-09-11T18:45:16;6.60;;;2.38;;
74291;SDS011;62687;55.738;37.516;2022-09-11T18:48:00;7.72;;;3.17;;
74291;SDS011;62687;55.738;37.516;2022-09-11T18:50:44;8.38;;;2.38;;
74291;SDS011;62687;55.738;37.516;2022-09-11T18:53:29;6.10;;;2.60;;
74291;SDS011;62687;55.738;37.516;2022-09-11T18:56:13;6.70;;;2.53;;
74291;SDS011;62687;55.738;37.516;2022-09-11T18:59:01;11.55;;;2.75;;